Cactus Flats, South Dakota
Current Conditions -  °F | °C
As of 2:55 PM on Tuesday 21 Oct 2014 (Local Time) from KPHP Reporting Station
Clear Clear  
Wind Chill: 83°   Ceiling: Unl
Heat Index: 83°   Visibility: 10mi
Dew Point: 47°   Wind: 20mph
Humidity: 28%   Direction: 180°S
Pressure: 29.72"   Gusts: NA
Location:  44.0813°N, 102.067°W
Report Text: KPHP 212055Z AUTO 18017KT 10SM CLR 28/08 A2972 RMK AO2 SLP050 T02830083 56025
Loading
Personal Weather Stations






























Interactive Weather Map
Tropical Storm Tracking
New forecast layout! Learn more

10-Day Weather Forecast

Advertisements
Track Severe Weather on mobile